Dingtao, China
Current Conditions -  °F | °C
As of 6:00 AM on Friday 24 Oct 2014 (Local Time) from ZHCC Reporting Station
Haze Haze  
Wind Chill: 57°   Ceiling: Unl
Heat Index: 57°   Visibility: 0.75mi
Dew Point: 55°   Wind: 2mph
Humidity: 94%   Direction: 180°S
Pressure: 29.94"   Gusts: NA
Location:  35.07°N, 115.56°E
Report Text: ZHCC 232200Z 18001MPS 1200 R12/P2000 BR NSC 14/13 Q1014 NOSIG
Loading
Personal Weather Stations






























Interactive Weather Map
Tropical Storm Tracking
New forecast layout! Learn more

10-Day Weather Forecast

Advertisements
Track Severe Weather on mobile